This is the latest recevied weather packets stored in our database for station/object K1BWE-1. If no packets are shown the sender has not sent any weather packets the latest 10 day(s).
| Time | Temp. | Humidity | Pressure | Rain* | Wind** | Luminosity | Snow |
|---|---|---|---|---|---|---|---|
| 1777639559 | 11.67° C | 67% | 1013.2 hPa | 0 mm | - | 6 W/m² | - |
| 1777639256 | 11.67° C | 67% | 1013.4 hPa | 0 mm | - | 3 W/m² | - |
| 1777638952 | 11.67° C | 67% | 1013.2 hPa | 0 mm | - | 1 W/m² | - |
| 1777638648 | 12.22° C | 66% | 1013.3 hPa | 0 mm | - | 0 W/m² | - |
| 1777638345 | 11.67° C | 64% | 1013.6 hPa | 0 mm | - | 0 W/m² | - |
| 1777638040 | 11.67° C | 66% | 1013.1 hPa | 0 mm | - | 0 W/m² | - |
| 1777637738 | 11.11° C | 67% | 1013.1 hPa | 0 mm | - | 0 W/m² | - |
| 1777637434 | 11.67° C | 66% | 1013.1 hPa | 0 mm | - | 0 W/m² | - |
| 1777637132 | 11.11° C | 66% | 1013.3 hPa | 0 mm | - | 0 W/m² | - |
| 1777636828 | 11.11° C | 66% | 1013 hPa | 0 mm | - | 0 W/m² | - |
| 1777636524 | 11.67° C | 65% | 1013.1 hPa | 0 mm | - | 0 W/m² | - |
| 1777636220 | 11.67° C | 66% | 1013 hPa | 0 mm | - | 0 W/m² | - |
| 1777635915 | 11.67° C | 66% | 1013.2 hPa | 0 mm | - | 0 W/m² | - |
| 1777635611 | 11.67° C | 64% | 1013.2 hPa | 0 mm | - | 0 W/m² | - |
| 1777635308 | 11.67° C | 67% | 1013 hPa | 0 mm | - | 0 W/m² | - |
| 1777635004 | 11.67° C | 66% | 1012.8 hPa | 0 mm | - | 0 W/m² | - |
| 1777634701 | 11.67° C | 64% | 1013 hPa | 0 mm | - | 0 W/m² | - |
| 1777634399 | 11.67° C | 67% | 1012.7 hPa | 0 mm | - | 0 W/m² | - |
| 1777634095 | 11.67° C | 65% | 1012.8 hPa | 0 mm | - | 0 W/m² | - |
| 1777633792 | 11.67° C | 65% | 1012.8 hPa | 0 mm | - | 0 W/m² | - |
| 1777633490 | 12.22° C | 65% | 1013 hPa | 0 mm | - | 0 W/m² | - |
| 1777633187 | 12.22° C | 65% | 1012.6 hPa | 0 mm | - | 0 W/m² | - |
| 1777632884 | 12.22° C | 66% | 1012.6 hPa | 0 mm | - | 0 W/m² | - |
| 1777632580 | 12.22° C | 65% | 1012.7 hPa | 0 mm | - | 0 W/m² | - |
| 1777632277 | 12.78° C | 64% | 1012.4 hPa | 0 mm | - | 0 W/m² | - |
* Rain latest hour (hover to see other rain measurements)
** Current wind speed in m/s (hover to see current wind gust speed)